sensor_id;sensor_type;location;lat;lon;timestamp;pressure;altitude;pressure_sealevel;temperature;humidity
12077;BME280;12420;42.676;23.262;2022-09-24T00:01:07;94924.63;;;9.98;88.65
12077;BME280;12420;42.676;23.262;2022-09-24T00:03:34;94925.47;;;9.88;89.65
12077;BME280;12420;42.676;23.262;2022-09-24T00:06:02;94917.31;;;9.71;90.45
12077;BME280;12420;42.676;23.262;2022-09-24T00:08:30;94866.94;;;9.18;91.56
12077;BME280;12420;42.676;23.262;2022-09-24T00:11:01;94894.91;;;9.44;92.47
12077;BME280;12420;42.676;23.262;2022-09-24T00:13:30;94937.53;;;9.54;94.24
12077;BME280;12420;42.676;23.262;2022-09-24T00:16:01;94846.28;;;8.88;94.27
12077;BME280;12420;42.676;23.262;2022-09-24T00:18:28;94916.41;;;9.57;93.66
12077;BME280;12420;42.676;23.262;2022-09-24T00:20:55;94901.22;;;9.33;95.29
12077;BME280;12420;42.676;23.262;2022-09-24T00:23:22;94933.50;;;9.55;95.07
12077;BME280;12420;42.676;23.262;2022-09-24T00:25:49;94862.63;;;9.22;95.00
12077;BME280;12420;42.676;23.262;2022-09-24T00:28:34;94901.44;;;9.41;95.30
12077;BME280;12420;42.676;23.262;2022-09-24T00:31:04;94907.69;;;9.47;95.42
12077;BME280;12420;42.676;23.262;2022-09-24T00:33:32;94933.09;;;9.40;95.38
12077;BME280;12420;42.676;23.262;2022-09-24T00:36:00;94919.53;;;9.42;95.78
12077;BME280;12420;42.676;23.262;2022-09-24T00:38:29;94912.00;;;9.37;95.70
12077;BME280;12420;42.676;23.262;2022-09-24T00:40:55;94867.78;;;9.01;97.20
12077;BME280;12420;42.676;23.262;2022-09-24T00:43:24;94906.78;;;9.28;97.82
12077;BME280;12420;42.676;23.262;2022-09-24T00:45:56;94915.63;;;9.21;99.06
12077;BME280;12420;42.676;23.262;2022-09-24T00:48:28;94908.59;;;9.20;99.09
12077;BME280;12420;42.676;23.262;2022-09-24T00:50:58;94901.13;;;9.09;100.00
12077;BME280;12420;42.676;23.262;2022-09-24T00:53:26;94912.16;;;9.15;99.79
12077;BME280;12420;42.676;23.262;2022-09-24T00:55:58;94903.84;;;9.15;99.19
12077;BME280;12420;42.676;23.262;2022-09-24T00:58:27;94902.59;;;9.16;98.78
12077;BME280;12420;42.676;23.262;2022-09-24T01:01:02;94896.59;;;9.11;99.72
12077;BME280;12420;42.676;23.262;2022-09-24T01:03:31;94865.91;;;8.79;100.00
12077;BME280;12420;42.676;23.262;2022-09-24T01:06:00;94837.38;;;8.60;100.00
12077;BME280;12420;42.676;23.262;2022-09-24T01:08:27;94874.00;;;8.66;100.00
12077;BME280;12420;42.676;23.262;2022-09-24T01:11:06;94889.47;;;8.86;100.00
12077;BME280;12420;42.676;23.262;2022-09-24T01:13:53;94894.28;;;8.68;100.00
12077;BME280;12420;42.676;23.262;2022-09-24T01:16:31;94901.28;;;8.81;100.00
12077;BME280;12420;42.676;23.262;2022-09-24T01:19:09;94866.50;;;8.61;100.00
12077;BME280;12420;42.676;23.262;2022-09-24T01:21:45;94875.00;;;8.63;100.00
12077;BME280;12420;42.676;23.262;2022-09-24T01:24:38;94856.75;;;8.48;100.00
12077;BME280;12420;42.676;23.262;2022-09-24T01:27:14;94892.50;;;8.77;100.00
12077;BME280;12420;42.676;23.262;2022-09-24T01:29:49;94872.56;;;8.48;100.00
12077;BME280;12420;42.676;23.262;2022-09-24T01:32:24;94884.06;;;8.58;100.00
12077;BME280;12420;42.676;23.262;2022-09-24T01:34:59;94893.59;;;8.51;100.00
12077;BME280;12420;42.676;23.262;2022-09-24T01:37:30;94856.31;;;8.16;100.00
12077;BME280;12420;42.676;23.262;2022-09-24T01:39:59;94890.13;;;8.39;100.00
12077;BME280;12420;42.676;23.262;2022-09-24T01:42:28;94866.38;;;8.08;100.00
12077;BME280;12420;42.676;23.262;2022-09-24T01:45:00;94893.91;;;8.25;100.00
12077;BME280;12420;42.676;23.262;2022-09-24T01:47:30;94887.59;;;8.36;100.00
12077;BME280;12420;42.676;23.262;2022-09-24T01:49:57;94892.34;;;8.52;100.00
12077;BME280;12420;42.676;23.262;2022-09-24T01:52:30;94914.94;;;8.45;100.00
12077;BME280;12420;42.676;23.262;2022-09-24T01:55:01;94899.13;;;8.34;100.00
12077;BME280;12420;42.676;23.262;2022-09-24T01:57:30;94909.94;;;8.26;100.00
12077;BME280;12420;42.676;23.262;2022-09-24T02:00:04;94896.41;;;8.23;100.00
12077;BME280;12420;42.676;23.262;2022-09-24T02:02:38;94900.44;;;8.16;100.00
12077;BME280;12420;42.676;23.262;2022-09-24T02:05:13;94911.44;;;8.27;100.00
12077;BME280;12420;42.676;23.262;2022-09-24T02:07:45;94875.69;;;7.94;100.00
12077;BME280;12420;42.676;23.262;2022-09-24T02:10:16;94906.97;;;8.13;100.00
12077;BME280;12420;42.676;23.262;2022-09-24T02:12:47;94915.72;;;8.17;100.00
12077;BME280;12420;42.676;23.262;2022-09-24T02:15:20;94916.25;;;8.10;100.00
12077;BME280;12420;42.676;23.262;2022-09-24T02:17:53;94869.41;;;7.71;100.00
12077;BME280;12420;42.676;23.262;2022-09-24T02:20:22;94863.44;;;7.67;100.00
12077;BME280;12420;42.676;23.262;2022-09-24T02:22:53;94923.75;;;8.10;100.00
12077;BME280;12420;42.676;23.262;2022-09-24T02:25:28;94924.75;;;8.18;100.00
12077;BME280;12420;42.676;23.262;2022-09-24T02:27:56;94927.75;;;8.09;100.00
12077;BME280;12420;42.676;23.262;2022-09-24T02:30:24;94915.28;;;7.96;100.00
12077;BME280;12420;42.676;23.262;2022-09-24T02:32:52;94932.78;;;8.10;100.00
12077;BME280;12420;42.676;23.262;2022-09-24T02:35:21;94918.00;;;7.91;100.00
12077;BME280;12420;42.676;23.262;2022-09-24T02:37:47;94942.06;;;7.96;100.00
12077;BME280;12420;42.676;23.262;2022-09-24T02:40:14;94818.00;;;6.44;100.00
12077;BME280;12420;42.676;23.262;2022-09-24T02:42:41;94926.78;;;7.61;100.00
12077;BME280;12420;42.676;23.262;2022-09-24T02:45:08;94943.06;;;7.70;100.00
12077;BME280;12420;42.676;23.262;2022-09-24T02:47:37;94941.31;;;7.67;100.00
12077;BME280;12420;42.676;23.262;2022-09-24T02:50:05;94945.81;;;7.65;100.00
12077;BME280;12420;42.676;23.262;2022-09-24T02:52:32;94882.44;;;7.25;100.00
12077;BME280;12420;42.676;23.262;2022-09-24T02:54:59;94953.06;;;7.73;100.00
12077;BME280;12420;42.676;23.262;2022-09-24T02:57:26;94949.34;;;7.82;100.00
12077;BME280;12420;42.676;23.262;2022-09-24T02:59:53;94955.34;;;7.80;100.00
12077;BME280;12420;42.676;23.262;2022-09-24T03:02:20;94925.03;;;7.52;100.00
12077;BME280;12420;42.676;23.262;2022-09-24T03:04:48;94927.03;;;7.63;100.00
12077;BME280;12420;42.676;23.262;2022-09-24T03:07:16;94890.97;;;7.50;100.00
12077;BME280;12420;42.676;23.262;2022-09-24T03:09:43;94956.59;;;7.96;100.00
12077;BME280;12420;42.676;23.262;2022-09-24T03:12:10;94942.59;;;7.89;100.00
12077;BME280;12420;42.676;23.262;2022-09-24T03:14:37;94950.56;;;8.03;100.00
12077;BME280;12420;42.676;23.262;2022-09-24T03:17:04;94879.97;;;7.61;100.00
12077;BME280;12420;42.676;23.262;2022-09-24T03:19:31;94954.59;;;8.08;100.00
12077;BME280;12420;42.676;23.262;2022-09-24T03:21:59;94950.34;;;8.07;100.00
12077;BME280;12420;42.676;23.262;2022-09-24T03:24:26;94940.31;;;7.98;100.00
12077;BME280;12420;42.676;23.262;2022-09-24T03:26:54;94957.31;;;8.14;100.00
12077;BME280;12420;42.676;23.262;2022-09-24T03:29:21;94957.34;;;8.08;100.00
12077;BME280;12420;42.676;23.262;2022-09-24T03:32:08;94896.97;;;7.54;100.00
12077;BME280;12420;42.676;23.262;2022-09-24T03:34:35;94958.09;;;8.09;100.00
12077;BME280;12420;42.676;23.262;2022-09-24T03:37:04;94988.94;;;8.07;100.00
12077;BME280;12420;42.676;23.262;2022-09-24T03:39:31;94964.63;;;8.00;100.00
12077;BME280;12420;42.676;23.262;2022-09-24T03:41:58;94924.78;;;7.73;100.00
12077;BME280;12420;42.676;23.262;2022-09-24T03:44:25;94980.13;;;8.09;100.00
12077;BME280;12420;42.676;23.262;2022-09-24T03:46:52;94972.38;;;8.07;100.00
12077;BME280;12420;42.676;23.262;2022-09-24T03:49:20;94951.34;;;7.87;100.00
12077;BME280;12420;42.676;23.262;2022-09-24T03:51:47;94963.09;;;7.88;100.00
12077;BME280;12420;42.676;23.262;2022-09-24T03:54:16;94972.13;;;7.88;100.00
12077;BME280;12420;42.676;23.262;2022-09-24T03:56:42;94980.91;;;7.87;100.00
12077;BME280;12420;42.676;23.262;2022-09-24T03:59:09;94965.09;;;7.65;100.00
12077;BME280;12420;42.676;23.262;2022-09-24T04:01:37;94961.81;;;7.55;100.00
12077;BME280;12420;42.676;23.262;2022-09-24T04:04:04;94978.38;;;7.66;100.00
12077;BME280;12420;42.676;23.262;2022-09-24T04:06:30;94984.59;;;7.55;100.00
12077;BME280;12420;42.676;23.262;2022-09-24T04:08:57;94935.03;;;7.38;100.00
12077;BME280;12420;42.676;23.262;2022-09-24T04:11:26;94974.38;;;7.73;100.00
12077;BME280;12420;42.676;23.262;2022-09-24T04:13:52;95010.69;;;7.71;100.00
12077;BME280;12420;42.676;23.262;2022-09-24T04:16:19;94962.09;;;7.46;100.00
12077;BME280;12420;42.676;23.262;2022-09-24T04:18:46;94974.88;;;7.71;100.00
12077;BME280;12420;42.676;23.262;2022-09-24T04:21:13;94843.31;;;6.70;100.00
12077;BME280;12420;42.676;23.262;2022-09-24T04:23:40;94983.38;;;7.73;100.00
12077;BME280;12420;42.676;23.262;2022-09-24T04:26:06;94980.13;;;7.80;100.00
12077;BME280;12420;42.676;23.262;2022-09-24T04:28:35;94991.91;;;7.81;100.00
12077;BME280;12420;42.676;23.262;2022-09-24T04:31:01;94990.66;;;7.82;100.00
12077;BME280;12420;42.676;23.262;2022-09-24T04:33:28;94959.06;;;7.55;100.00
12077;BME280;12420;42.676;23.262;2022-09-24T04:35:55;94927.72;;;7.07;100.00
12077;BME280;12420;42.676;23.262;2022-09-24T04:38:22;95011.22;;;7.87;100.00
12077;BME280;12420;42.676;23.262;2022-09-24T04:40:49;95006.19;;;7.91;100.00
12077;BME280;12420;42.676;23.262;2022-09-24T04:43:15;95005.97;;;7.94;100.00
12077;BME280;12420;42.676;23.262;2022-09-24T04:45:44;95002.94;;;8.03;100.00
12077;BME280;12420;42.676;23.262;2022-09-24T04:48:11;94997.94;;;8.02;100.00
12077;BME280;12420;42.676;23.262;2022-09-24T04:50:38;94992.19;;;8.00;100.00
12077;BME280;12420;42.676;23.262;2022-09-24T04:53:05;94976.13;;;7.93;100.00
12077;BME280;12420;42.676;23.262;2022-09-24T04:55:32;94977.66;;;7.99;100.00
12077;BME280;12420;42.676;23.262;2022-09-24T04:57:59;94998.69;;;8.19;100.00
12077;BME280;12420;42.676;23.262;2022-09-24T05:00:26;94978.88;;;8.21;100.00
12077;BME280;12420;42.676;23.262;2022-09-24T05:02:58;95000.47;;;8.45;100.00
12077;BME280;12420;42.676;23.262;2022-09-24T05:05:26;95007.44;;;8.63;100.00
12077;BME280;12420;42.676;23.262;2022-09-24T05:07:53;94997.41;;;8.71;100.00
12077;BME280;12420;42.676;23.262;2022-09-24T05:10:21;95009.44;;;8.74;100.00
12077;BME280;12420;42.676;23.262;2022-09-24T05:12:48;95005.13;;;8.84;100.00
12077;BME280;12420;42.676;23.262;2022-09-24T05:15:15;95007.38;;;8.91;100.00
12077;BME280;12420;42.676;23.262;2022-09-24T05:17:43;95006.09;;;8.98;100.00
12077;BME280;12420;42.676;23.262;2022-09-24T05:20:13;94999.56;;;8.95;100.00
12077;BME280;12420;42.676;23.262;2022-09-24T05:22:41;94962.44;;;8.96;100.00
12077;BME280;12420;42.676;23.262;2022-09-24T05:25:09;95004.66;;;9.38;98.88
12077;BME280;12420;42.676;23.262;2022-09-24T05:27:37;94994.06;;;9.48;97.20
12077;BME280;12420;42.676;23.262;2022-09-24T05:30:08;94977.03;;;9.38;97.68
12077;BME280;12420;42.676;23.262;2022-09-24T05:32:35;94975.31;;;9.35;98.90
12077;BME280;12420;42.676;23.262;2022-09-24T05:35:04;95022.91;;;9.99;96.67
12077;BME280;12420;42.676;23.262;2022-09-24T05:37:34;95013.41;;;9.95;94.13
12077;BME280;12420;42.676;23.262;2022-09-24T05:40:01;95020.13;;;10.05;95.73
12077;BME280;12420;42.676;23.262;2022-09-24T05:42:59;95015.59;;;10.02;94.73
12077;BME280;12420;42.676;23.262;2022-09-24T05:45:27;94980.50;;;9.50;94.40
12077;BME280;12420;42.676;23.262;2022-09-24T05:47:53;95016.50;;;10.16;93.74
12077;BME280;12420;42.676;23.262;2022-09-24T05:50:20;95014.25;;;10.14;94.35
12077;BME280;12420;42.676;23.262;2022-09-24T05:52:48;95038.19;;;10.42;94.07
12077;BME280;12420;42.676;23.262;2022-09-24T05:55:15;94932.75;;;9.55;92.25
12077;BME280;12420;42.676;23.262;2022-09-24T05:57:42;95038.94;;;10.42;93.39
12077;BME280;12420;42.676;23.262;2022-09-24T06:00:09;95025.06;;;10.48;92.75
12077;BME280;12420;42.676;23.262;2022-09-24T06:02:36;95043.72;;;10.72;92.16
12077;BME280;12420;42.676;23.262;2022-09-24T06:05:04;95027.22;;;10.61;89.77
12077;BME280;12420;42.676;23.262;2022-09-24T06:07:31;95042.16;;;10.77;88.41
12077;BME280;12420;42.676;23.262;2022-09-24T06:10:02;95049.72;;;10.76;89.21
12077;BME280;12420;42.676;23.262;2022-09-24T06:12:31;95015.13;;;10.64;89.23
12077;BME280;12420;42.676;23.262;2022-09-24T06:14:59;95014.38;;;10.63;89.14
12077;BME280;12420;42.676;23.262;2022-09-24T06:17:27;95048.06;;;10.92;89.79
12077;BME280;12420;42.676;23.262;2022-09-24T06:19:54;95025.19;;;10.86;88.30
12077;BME280;12420;42.676;23.262;2022-09-24T06:22:22;95042.56;;;11.11;87.88
12077;BME280;12420;42.676;23.262;2022-09-24T06:24:49;95052.66;;;11.08;87.25
12077;BME280;12420;42.676;23.262;2022-09-24T06:27:17;95051.28;;;11.21;90.08
12077;BME280;12420;42.676;23.262;2022-09-24T06:29:44;95040.66;;;11.25;86.58
12077;BME280;12420;42.676;23.262;2022-09-24T06:32:11;95059.25;;;11.30;86.64
12077;BME280;12420;42.676;23.262;2022-09-24T06:34:38;95005.44;;;10.76;85.87
12077;BME280;12420;42.676;23.262;2022-09-24T06:37:05;95053.31;;;11.20;87.01
12077;BME280;12420;42.676;23.262;2022-09-24T06:39:32;95054.22;;;11.04;88.56
12077;BME280;12420;42.676;23.262;2022-09-24T06:41:59;95066.69;;;11.16;87.39
12077;BME280;12420;42.676;23.262;2022-09-24T06:44:27;95026.31;;;11.02;87.11
12077;BME280;12420;42.676;23.262;2022-09-24T06:46:53;95056.75;;;11.26;88.31
12077;BME280;12420;42.676;23.262;2022-09-24T06:49:21;95024.13;;;10.95;87.39
12077;BME280;12420;42.676;23.262;2022-09-24T06:51:48;95003.47;;;10.71;86.77
12077;BME280;12420;42.676;23.262;2022-09-24T06:54:15;95074.72;;;11.20;87.10
12077;BME280;12420;42.676;23.262;2022-09-24T06:56:42;95055.16;;;11.12;86.61
12077;BME280;12420;42.676;23.262;2022-09-24T06:59:09;95006.75;;;10.94;85.88
12077;BME280;12420;42.676;23.262;2022-09-24T07:01:37;94977.38;;;10.85;85.20
12077;BME280;12420;42.676;23.262;2022-09-24T07:04:11;95058.47;;;11.29;84.17
12077;BME280;12420;42.676;23.262;2022-09-24T07:06:38;95020.41;;;11.11;83.21
12077;BME280;12420;42.676;23.262;2022-09-24T07:09:22;95050.03;;;11.41;84.43
12077;BME280;12420;42.676;23.262;2022-09-24T07:11:49;95048.72;;;11.47;85.46
12077;BME280;12420;42.676;23.262;2022-09-24T07:14:17;95073.44;;;11.64;82.42
12077;BME280;12420;42.676;23.262;2022-09-24T07:16:46;95057.69;;;11.72;82.63
12077;BME280;12420;42.676;23.262;2022-09-24T07:19:13;95058.16;;;11.95;83.77
12077;BME280;12420;42.676;23.262;2022-09-24T07:21:39;95063.25;;;12.10;82.78
12077;BME280;12420;42.676;23.262;2022-09-24T07:24:06;95061.31;;;12.24;80.43
12077;BME280;12420;42.676;23.262;2022-09-24T07:26:33;95073.16;;;12.25;79.88
12077;BME280;12420;42.676;23.262;2022-09-24T07:28:59;95062.41;;;12.34;79.48
12077;BME280;12420;42.676;23.262;2022-09-24T07:31:26;95065.00;;;12.46;78.38
12077;BME280;12420;42.676;23.262;2022-09-24T07:33:56;95059.91;;;12.50;77.80
12077;BME280;12420;42.676;23.262;2022-09-24T07:36:23;95055.75;;;12.56;77.03
12077;BME280;12420;42.676;23.262;2022-09-24T07:38:49;95054.03;;;12.53;75.66
12077;BME280;12420;42.676;23.262;2022-09-24T07:41:16;95066.53;;;12.47;75.98
12077;BME280;12420;42.676;23.262;2022-09-24T07:43:44;95053.94;;;12.59;77.14
12077;BME280;12420;42.676;23.262;2022-09-24T07:46:11;95048.31;;;12.65;75.89
12077;BME280;12420;42.676;23.262;2022-09-24T07:48:38;95054.28;;;12.69;76.08
12077;BME280;12420;42.676;23.262;2022-09-24T07:51:11;95048.06;;;12.63;75.15
12077;BME280;12420;42.676;23.262;2022-09-24T07:53:37;95019.53;;;12.49;75.54
12077;BME280;12420;42.676;23.262;2022-09-24T07:56:04;95048.63;;;12.74;75.75
12077;BME280;12420;42.676;23.262;2022-09-24T07:58:31;95058.16;;;12.79;74.97
12077;BME280;12420;42.676;23.262;2022-09-24T08:00:59;95042.72;;;13.10;73.44
12077;BME280;12420;42.676;23.262;2022-09-24T08:03:26;95054.03;;;13.25;72.73
12077;BME280;12420;42.676;23.262;2022-09-24T08:05:53;95053.19;;;13.44;72.45
12077;BME280;12420;42.676;23.262;2022-09-24T08:08:24;95052.88;;;13.48;70.79
12077;BME280;12420;42.676;23.262;2022-09-24T08:10:53;95043.53;;;13.58;70.48
12077;BME280;12420;42.676;23.262;2022-09-24T08:13:21;95048.03;;;13.75;70.27
12077;BME280;12420;42.676;23.262;2022-09-24T08:15:55;95053.03;;;13.76;68.60
12077;BME280;12420;42.676;23.262;2022-09-24T08:18:22;95050.97;;;13.90;69.12
12077;BME280;12420;42.676;23.262;2022-09-24T08:20:48;95051.28;;;14.00;69.72
12077;BME280;12420;42.676;23.262;2022-09-24T08:23:18;95053.19;;;14.05;67.47
12077;BME280;12420;42.676;23.262;2022-09-24T08:25:47;95048.09;;;14.17;69.06
12077;BME280;12420;42.676;23.262;2022-09-24T08:28:14;95037.97;;;14.06;65.74
12077;BME280;12420;42.676;23.262;2022-09-24T08:30:44;95025.38;;;13.92;65.98
12077;BME280;12420;42.676;23.262;2022-09-24T08:33:11;95009.81;;;14.09;66.28
12077;BME280;12420;42.676;23.262;2022-09-24T08:35:38;95056.59;;;14.32;65.78
12077;BME280;12420;42.676;23.262;2022-09-24T08:38:05;95043.09;;;14.15;65.49
12077;BME280;12420;42.676;23.262;2022-09-24T08:40:36;95041.88;;;14.24;66.15
12077;BME280;12420;42.676;23.262;2022-09-24T08:43:15;95035.78;;;14.25;66.23
12077;BME280;12420;42.676;23.262;2022-09-24T08:45:50;95022.00;;;14.41;64.33
12077;BME280;12420;42.676;23.262;2022-09-24T08:48:38;95015.34;;;14.44;65.35
12077;BME280;12420;42.676;23.262;2022-09-24T08:51:11;95023.06;;;14.80;64.24
12077;BME280;12420;42.676;23.262;2022-09-24T08:53:45;95022.81;;;14.91;62.51
12077;BME280;12420;42.676;23.262;2022-09-24T08:56:18;95030.66;;;15.00;62.43
12077;BME280;12420;42.676;23.262;2022-09-24T08:58:51;95020.50;;;15.10;61.74
12077;BME280;12420;42.676;23.262;2022-09-24T09:01:30;95020.88;;;15.07;62.29
12077;BME280;12420;42.676;23.262;2022-09-24T09:04:02;95004.56;;;15.18;62.38
12077;BME280;12420;42.676;23.262;2022-09-24T09:06:48;95019.91;;;15.33;59.49
12077;BME280;12420;42.676;23.262;2022-09-24T09:09:20;94964.16;;;15.04;60.47
12077;BME280;12420;42.676;23.262;2022-09-24T09:11:51;95014.78;;;15.52;60.38
12077;BME280;12420;42.676;23.262;2022-09-24T09:14:34;94976.75;;;15.34;58.07
12077;BME280;12420;42.676;23.262;2022-09-24T09:17:08;94995.63;;;15.49;57.68
12077;BME280;12420;42.676;23.262;2022-09-24T09:19:40;95019.59;;;15.80;58.39
12077;BME280;12420;42.676;23.262;2022-09-24T09:22:12;95010.13;;;15.91;57.89
12077;BME280;12420;42.676;23.262;2022-09-24T09:24:43;95013.69;;;15.99;58.07
12077;BME280;12420;42.676;23.262;2022-09-24T09:27:12;95002.31;;;15.90;57.20
12077;BME280;12420;42.676;23.262;2022-09-24T09:29:41;94986.34;;;15.98;56.88
12077;BME280;12420;42.676;23.262;2022-09-24T09:32:19;94975.00;;;16.11;57.62
12077;BME280;12420;42.676;23.262;2022-09-24T09:34:52;94999.78;;;16.22;54.44
12077;BME280;12420;42.676;23.262;2022-09-24T09:37:27;95013.00;;;16.22;53.88
12077;BME280;12420;42.676;23.262;2022-09-24T09:40:03;94998.31;;;16.29;55.24
12077;BME280;12420;42.676;23.262;2022-09-24T09:42:36;94995.88;;;16.48;54.79
12077;BME280;12420;42.676;23.262;2022-09-24T09:45:24;94974.31;;;16.57;55.88
12077;BME280;12420;42.676;23.262;2022-09-24T09:47:55;94979.88;;;16.72;56.14
12077;BME280;12420;42.676;23.262;2022-09-24T09:50:25;94976.19;;;16.85;48.69
12077;BME280;12420;42.676;23.262;2022-09-24T09:52:55;94960.53;;;16.89;44.88
12077;BME280;12420;42.676;23.262;2022-09-24T09:55:25;94973.91;;;17.06;41.77
12077;BME280;12420;42.676;23.262;2022-09-24T09:58:00;94925.63;;;16.98;41.81
12077;BME280;12420;42.676;23.262;2022-09-24T10:00:35;94950.91;;;17.31;39.25
12077;BME280;12420;42.676;23.262;2022-09-24T10:03:17;94946.03;;;17.39;41.44
12077;BME280;12420;42.676;23.262;2022-09-24T10:05:51;94947.09;;;17.51;39.91
12077;BME280;12420;42.676;23.262;2022-09-24T10:08:20;94947.25;;;17.61;39.12
12077;BME280;12420;42.676;23.262;2022-09-24T10:10:51;94951.28;;;17.75;39.10
12077;BME280;12420;42.676;23.262;2022-09-24T10:13:19;94935.97;;;17.76;38.91
12077;BME280;12420;42.676;23.262;2022-09-24T10:15:52;94903.28;;;17.46;39.28
12077;BME280;12420;42.676;23.262;2022-09-24T10:18:27;94924.78;;;17.76;38.76
12077;BME280;12420;42.676;23.262;2022-09-24T10:20:55;94907.06;;;17.74;38.15
12077;BME280;12420;42.676;23.262;2022-09-24T10:23:26;94925.91;;;17.81;38.12
12077;BME280;12420;42.676;23.262;2022-09-24T10:25:58;94939.50;;;17.77;38.62
12077;BME280;12420;42.676;23.262;2022-09-24T10:28:26;94935.22;;;17.84;39.07
12077;BME280;12420;42.676;23.262;2022-09-24T10:31:15;94936.78;;;18.02;38.34
12077;BME280;12420;42.676;23.262;2022-09-24T10:33:46;94925.34;;;18.08;38.82
12077;BME280;12420;42.676;23.262;2022-09-24T10:36:15;94929.47;;;18.07;38.76
12077;BME280;12420;42.676;23.262;2022-09-24T10:38:42;94941.44;;;18.32;38.67
12077;BME280;12420;42.676;23.262;2022-09-24T10:41:23;94949.63;;;18.38;36.87
12077;BME280;12420;42.676;23.262;2022-09-24T10:43:51;94944.31;;;18.25;36.56
12077;BME280;12420;42.676;23.262;2022-09-24T10:49:32;94897.13;;;18.13;36.60
12077;BME280;12420;42.676;23.262;2022-09-24T10:52:07;94830.03;;;17.65;36.19
12077;BME280;12420;42.676;23.262;2022-09-24T10:54:49;94885.41;;;18.07;36.62
12077;BME280;12420;42.676;23.262;2022-09-24T10:57:29;94945.03;;;18.50;37.12
12077;BME280;12420;42.676;23.262;2022-09-24T11:00:06;94932.44;;;18.59;36.74
12077;BME280;12420;42.676;23.262;2022-09-24T11:02:44;94947.16;;;18.42;36.07
12077;BME280;12420;42.676;23.262;2022-09-24T11:05:21;94935.19;;;18.66;36.21
12077;BME280;12420;42.676;23.262;2022-09-24T11:07:57;94839.09;;;18.06;36.14
12077;BME280;12420;42.676;23.262;2022-09-24T11:13:32;94934.34;;;18.99;35.83
12077;BME280;12420;42.676;23.262;2022-09-24T11:19:27;94916.28;;;18.92;35.63
12077;BME280;12420;42.676;23.262;2022-09-24T11:22:10;94916.28;;;19.09;35.62
12077;BME280;12420;42.676;23.262;2022-09-24T11:25:07;94901.25;;;19.15;35.74
12077;BME280;12420;42.676;23.262;2022-09-24T11:27:49;94899.59;;;19.29;34.24
12077;BME280;12420;42.676;23.262;2022-09-24T11:30:18;94895.00;;;19.24;35.14
12077;BME280;12420;42.676;23.262;2022-09-24T11:32:59;94894.50;;;19.18;34.29
12077;BME280;12420;42.676;23.262;2022-09-24T11:35:39;94900.91;;;19.28;34.04
12077;BME280;12420;42.676;23.262;2022-09-24T11:38:14;94892.19;;;19.24;33.99
12077;BME280;12420;42.676;23.262;2022-09-24T11:40:54;94868.94;;;19.14;35.00
12077;BME280;12420;42.676;23.262;2022-09-24T11:43:46;94851.09;;;19.01;35.27
12077;BME280;12420;42.676;23.262;2022-09-24T11:46:29;94869.66;;;19.32;34.24
12077;BME280;12420;42.676;23.262;2022-09-24T11:49:23;94878.19;;;19.51;33.61
12077;BME280;12420;42.676;23.262;2022-09-24T11:51:58;94877.03;;;19.54;33.94
12077;BME280;12420;42.676;23.262;2022-09-24T11:54:30;94889.31;;;19.59;34.08
12077;BME280;12420;42.676;23.262;2022-09-24T11:57:02;94887.72;;;19.65;34.53
12077;BME280;12420;42.676;23.262;2022-09-24T11:59:43;94890.66;;;19.58;33.94
12077;BME280;12420;42.676;23.262;2022-09-24T12:02:19;94852.38;;;19.35;34.33
12077;BME280;12420;42.676;23.262;2022-09-24T12:04:53;94884.13;;;19.55;34.41
12077;BME280;12420;42.676;23.262;2022-09-24T12:07:27;94872.72;;;19.70;34.22
12077;BME280;12420;42.676;23.262;2022-09-24T12:10:03;94868.00;;;19.73;33.76
12077;BME280;12420;42.676;23.262;2022-09-24T12:12:38;94878.56;;;19.82;34.01
12077;BME280;12420;42.676;23.262;2022-09-24T12:15:13;94880.19;;;19.85;33.92
12077;BME280;12420;42.676;23.262;2022-09-24T12:17:45;94877.31;;;20.03;33.67
12077;BME280;12420;42.676;23.262;2022-09-24T12:20:17;94881.94;;;20.08;33.21
12077;BME280;12420;42.676;23.262;2022-09-24T12:22:48;94884.63;;;20.15;33.08
12077;BME280;12420;42.676;23.262;2022-09-24T12:25:17;94862.88;;;20.16;33.10
12077;BME280;12420;42.676;23.262;2022-09-24T12:27:46;94888.81;;;20.34;33.18
12077;BME280;12420;42.676;23.262;2022-09-24T12:30:27;94881.59;;;20.41;32.74
12077;BME280;12420;42.676;23.262;2022-09-24T12:33:20;94863.81;;;20.28;32.68
12077;BME280;12420;42.676;23.262;2022-09-24T12:36:00;94878.47;;;20.36;32.45
12077;BME280;12420;42.676;23.262;2022-09-24T12:38:32;94865.84;;;20.18;32.76
12077;BME280;12420;42.676;23.262;2022-09-24T12:41:22;94841.97;;;20.09;32.75
12077;BME280;12420;42.676;23.262;2022-09-24T12:43:54;94835.63;;;20.09;33.40
12077;BME280;12420;42.676;23.262;2022-09-24T12:46:26;94877.13;;;20.37;33.20
12077;BME280;12420;42.676;23.262;2022-09-24T12:48:54;94870.81;;;20.47;32.81
12077;BME280;12420;42.676;23.262;2022-09-24T12:51:22;94867.69;;;20.43;32.47
12077;BME280;12420;42.676;23.262;2022-09-24T12:53:58;94872.56;;;20.42;32.16
12077;BME280;12420;42.676;23.262;2022-09-24T12:56:28;94863.56;;;20.44;32.43
12077;BME280;12420;42.676;23.262;2022-09-24T12:58:56;94823.41;;;20.24;32.47
12077;BME280;12420;42.676;23.262;2022-09-24T13:01:28;94809.94;;;20.22;32.49
12077;BME280;12420;42.676;23.262;2022-09-24T13:04:24;94840.63;;;20.47;32.61
12077;BME280;12420;42.676;23.262;2022-09-24T13:06:52;94833.16;;;20.23;31.82
12077;BME280;12420;42.676;23.262;2022-09-24T13:09:32;94828.69;;;20.10;31.87
12077;BME280;12420;42.676;23.262;2022-09-24T13:12:18;94853.72;;;20.15;32.06
12077;BME280;12420;42.676;23.262;2022-09-24T13:14:53;94816.66;;;20.00;32.54
12077;BME280;12420;42.676;23.262;2022-09-24T13:17:22;94850.78;;;20.23;32.09
12077;BME280;12420;42.676;23.262;2022-09-24T13:19:55;94837.31;;;20.31;32.33